createdAt,value
2019-03-01T00:01:01.221Z,25.17
2019-03-01T00:03:42.147Z,25.27
2019-03-01T00:06:22.796Z,24.60
2019-03-01T00:09:04.722Z,23.80
2019-03-01T00:11:46.159Z,22.00
2019-03-01T00:14:27.163Z,23.23
2019-03-01T00:17:08.700Z,23.30
2019-03-01T00:19:50.061Z,22.50
2019-03-01T00:22:31.530Z,22.23
2019-03-01T00:25:13.149Z,22.90
2019-03-01T00:28:13.783Z,20.17
2019-03-01T00:31:21.243Z,21.30
2019-03-01T00:34:03.830Z,21.07
2019-03-01T00:36:44.465Z,20.63
2019-03-01T00:39:25.957Z,21.57
2019-03-01T00:42:08.663Z,22.93
2019-03-01T00:44:50.130Z,22.40
2019-03-01T00:47:30.794Z,22.20
2019-03-01T00:50:12.282Z,21.63
2019-03-01T00:52:53.619Z,20.57
2019-03-01T00:55:35.092Z,21.23
2019-03-01T00:58:16.521Z,20.30
2019-03-01T01:00:58.403Z,21.30
2019-03-01T01:03:39.155Z,21.73
2019-03-01T01:06:08.604Z,20.93
2019-03-01T01:08:38.023Z,22.17
2019-03-01T01:11:26.533Z,21.23
2019-03-01T01:14:14.936Z,23.23
2019-03-01T01:16:55.884Z,21.17
2019-03-01T01:19:36.559Z,22.17
2019-03-01T01:22:17.994Z,20.90
2019-03-01T01:24:59.029Z,21.07
2019-03-01T01:27:41.091Z,19.90
2019-03-01T01:30:21.889Z,20.57
2019-03-01T01:33:02.417Z,18.77
2019-03-01T01:35:42.030Z,17.93
2019-03-01T01:38:23.308Z,17.90
2019-03-01T01:41:04.701Z,17.03
2019-03-01T01:43:45.345Z,16.73
2019-03-01T01:46:26.429Z,16.40
2019-03-01T01:49:07.888Z,16.27
2019-03-01T01:51:37.300Z,17.20
2019-03-01T01:54:26.141Z,16.70
2019-03-01T01:57:14.641Z,16.10
2019-03-01T02:00:03.094Z,16.77
2019-03-01T02:02:51.543Z,16.50
2019-03-01T02:05:32.302Z,16.10
2019-03-01T02:08:13.770Z,15.50
2019-03-01T02:10:55.003Z,16.13
2019-03-01T02:13:36.171Z,16.30
2019-03-01T02:16:16.861Z,15.90
2019-03-01T02:18:58.102Z,16.00
2019-03-01T02:21:39.303Z,15.77
2019-03-01T02:24:20.814Z,15.67
2019-03-01T02:27:02.026Z,15.50
2019-03-01T02:29:43.452Z,14.73
2019-03-01T02:32:24.831Z,16.40
2019-03-01T02:35:06.236Z,16.87
2019-03-01T02:37:47.959Z,15.33
2019-03-01T02:40:29.297Z,14.30
2019-03-01T02:43:10.443Z,16.13
2019-03-01T02:45:51.677Z,15.77
2019-03-01T02:48:32.841Z,16.93
2019-03-01T02:51:14.287Z,14.80
2019-03-01T02:53:55.163Z,16.10
2019-03-01T02:56:36.746Z,14.77
2019-03-01T02:59:17.998Z,13.87
2019-03-01T03:01:59.110Z,15.13
2019-03-01T03:04:40.499Z,15.60
2019-03-01T03:07:40.833Z,14.43
2019-03-01T03:10:21.844Z,13.63
2019-03-01T03:13:03.065Z,12.37
2019-03-01T03:15:46.668Z,12.43
2019-03-01T03:18:28.005Z,12.83
2019-03-01T03:21:07.674Z,12.13
2019-03-01T03:23:49.177Z,13.83
2019-03-01T03:26:30.450Z,14.77
2019-03-01T03:29:11.922Z,12.37
2019-03-01T03:31:53.278Z,13.33
2019-03-01T03:34:34.591Z,13.07
2019-03-01T03:37:15.701Z,13.10
2019-03-01T03:39:57.282Z,13.80
2019-03-01T03:42:38.366Z,14.83
2019-03-01T03:45:19.215Z,14.83
2019-03-01T03:48:00.445Z,17.00
2019-03-01T03:50:41.965Z,14.20
2019-03-01T03:53:24.475Z,14.47
2019-03-01T03:56:05.348Z,14.23
2019-03-01T03:58:46.040Z,16.83
2019-03-01T04:01:15.574Z,13.03
2019-03-01T04:04:04.207Z,13.20
2019-03-01T04:06:45.377Z,14.10
2019-03-01T04:09:26.602Z,13.40
2019-03-01T04:12:07.592Z,13.70
2019-03-01T04:14:37.083Z,15.93
2019-03-01T04:17:25.691Z,15.40
2019-03-01T04:20:15.493Z,16.47
2019-03-01T04:22:56.707Z,12.73
2019-03-01T04:25:38.052Z,15.93
2019-03-01T04:28:19.398Z,14.77
2019-03-01T04:31:03.324Z,14.73
2019-03-01T04:33:44.178Z,14.97
2019-03-01T04:36:25.286Z,14.57
2019-03-01T04:39:05.916Z,13.37
2019-03-01T04:41:54.823Z,14.63
2019-03-01T04:44:35.703Z,14.47
2019-03-01T04:47:16.341Z,15.53
2019-03-01T04:49:57.011Z,15.37
2019-03-01T04:52:37.837Z,16.83
2019-03-01T04:55:19.315Z,14.30
2019-03-01T04:58:00.411Z,16.80
2019-03-01T05:00:41.804Z,16.23
2019-03-01T05:03:23.064Z,15.00
2019-03-01T05:06:04.335Z,15.40
2019-03-01T05:08:45.910Z,15.47
2019-03-01T05:11:27.109Z,15.60
2019-03-01T05:14:08.525Z,15.77
2019-03-01T05:16:49.207Z,15.50
2019-03-01T05:19:30.223Z,15.20
2019-03-01T05:22:11.502Z,18.43
2019-03-01T05:24:52.490Z,19.87
2019-03-01T05:27:32.057Z,17.23
2019-03-01T05:30:20.457Z,20.43
2019-03-01T05:33:01.414Z,18.10
2019-03-01T05:35:42.941Z,18.30
2019-03-01T05:38:23.592Z,19.77
2019-03-01T05:41:04.262Z,21.07
2019-03-01T05:43:44.950Z,20.10
2019-03-01T05:46:24.388Z,20.47
2019-03-01T05:49:06.001Z,19.23
2019-03-01T05:51:47.281Z,19.03
2019-03-01T05:54:28.481Z,17.20
2019-03-01T05:57:09.405Z,18.53
2019-03-01T05:59:50.071Z,19.47
2019-03-01T06:02:30.852Z,18.63
2019-03-01T06:05:11.584Z,20.23
2019-03-01T06:07:53.146Z,18.10
2019-03-01T06:10:33.776Z,19.00
2019-03-01T06:13:14.449Z,16.57
2019-03-01T06:15:56.177Z,18.33
2019-03-01T06:18:37.034Z,16.47
2019-03-01T06:21:19.349Z,17.37
2019-03-01T06:24:01.921Z,19.20
2019-03-01T06:26:43.183Z,17.87
2019-03-01T06:29:24.254Z,18.20
2019-03-01T06:32:05.463Z,20.63
2019-03-01T06:34:46.467Z,18.77
2019-03-01T06:37:27.926Z,19.87
2019-03-01T06:40:54.545Z,20.37
2019-03-01T06:43:38.326Z,21.77
2019-03-01T06:46:45.834Z,21.10
2019-03-01T06:52:22.031Z,20.57
2019-03-01T06:55:03.504Z,23.90
2019-03-01T06:57:44.825Z,19.43
2019-03-01T07:00:26.003Z,23.10
2019-03-01T07:03:07.003Z,23.10
2019-03-01T07:05:52.089Z,21.63
2019-03-01T07:08:32.987Z,20.00
2019-03-01T07:11:13.721Z,17.80
2019-03-01T07:13:56.414Z,18.73
2019-03-01T07:16:37.483Z,18.50
2019-03-01T07:19:18.572Z,18.07
2019-03-01T07:21:59.980Z,21.93
2019-03-01T07:24:43.244Z,18.63
2019-03-01T07:27:25.483Z,20.83
2019-03-01T07:30:05.519Z,22.47
2019-03-01T07:32:46.569Z,21.03
2019-03-01T07:35:27.953Z,18.17
2019-03-01T07:37:57.489Z,20.63
2019-03-01T07:40:46.034Z,19.10
2019-03-01T07:43:27.391Z,18.47
2019-03-01T07:46:08.688Z,19.57
2019-03-01T07:48:49.655Z,18.57
2019-03-01T07:51:31.602Z,18.03
2019-03-01T07:54:13.338Z,18.53
2019-03-01T07:56:44.259Z,17.27
2019-03-01T07:59:13.772Z,15.10
2019-03-01T08:02:04.063Z,18.87
2019-03-01T08:04:44.850Z,14.60
2019-03-01T08:07:25.794Z,16.27
2019-03-01T08:10:07.699Z,14.03
2019-03-01T08:12:38.621Z,13.73
2019-03-01T08:17:56.419Z,13.30
2019-03-01T08:20:37.690Z,13.17
2019-03-01T08:23:19.356Z,13.33
2019-03-01T08:26:00.867Z,16.77
2019-03-01T08:28:42.247Z,13.97
2019-03-01T08:31:23.365Z,14.83
2019-03-01T08:34:04.710Z,12.67
2019-03-01T08:36:46.181Z,12.07
2019-03-01T08:39:27.730Z,14.20
2019-03-01T08:42:08.631Z,12.90
2019-03-01T08:44:49.301Z,14.40
2019-03-01T08:47:29.996Z,12.87
2019-03-01T08:50:11.565Z,12.77
2019-03-01T08:52:52.775Z,11.73
2019-03-01T08:55:35.535Z,12.17
2019-03-01T08:58:15.868Z,16.83
2019-03-01T09:00:59.590Z,12.17
2019-03-01T09:03:41.569Z,12.20
2019-03-01T09:06:23.334Z,12.40
2019-03-01T09:09:05.608Z,13.10
2019-03-01T09:11:46.516Z,13.50
2019-03-01T09:17:39.753Z,13.20
2019-03-01T09:20:20.940Z,12.80
2019-03-01T09:23:04.970Z,12.60
2019-03-01T09:25:45.388Z,11.90
2019-03-01T09:28:14.941Z,13.33
2019-03-01T09:31:03.533Z,10.30
2019-03-01T09:36:51.550Z,9.40
2019-03-01T09:39:32.751Z,11.47
2019-03-01T09:42:04.354Z,9.60
2019-03-01T09:44:52.476Z,10.87
2019-03-01T09:47:33.537Z,12.37
2019-03-01T09:50:16.480Z,10.20
2019-03-01T09:52:58.961Z,10.13
2019-03-01T09:55:41.373Z,9.20
2019-03-01T09:58:23.228Z,8.27
2019-03-01T10:01:04.032Z,10.80
2019-03-01T10:03:45.453Z,8.80
2019-03-01T10:06:26.970Z,10.47
2019-03-01T10:08:57.150Z,9.87
2019-03-01T10:11:26.519Z,9.70
2019-03-01T10:14:15.038Z,8.53
2019-03-01T10:17:03.615Z,9.43
2019-03-01T10:19:52.431Z,8.87
2019-03-01T10:22:41.313Z,9.23
2019-03-01T10:25:22.715Z,8.33
2019-03-01T10:28:04.204Z,7.07
2019-03-01T10:30:45.182Z,7.67
2019-03-01T10:33:26.642Z,9.00
2019-03-01T10:36:07.464Z,8.97
2019-03-01T10:38:49.014Z,11.73
2019-03-01T10:41:31.163Z,8.40
2019-03-01T10:44:11.931Z,9.90
2019-03-01T10:46:53.264Z,7.17
2019-03-01T10:49:22.912Z,6.77
2019-03-01T10:52:11.435Z,6.83
2019-03-01T10:54:52.771Z,6.07
2019-03-01T10:57:34.222Z,7.50
2019-03-01T11:00:15.509Z,9.07
2019-03-01T11:02:56.623Z,8.10
2019-03-01T11:05:38.102Z,9.53
2019-03-01T11:08:19.206Z,7.77
2019-03-01T11:11:00.390Z,8.57
2019-03-01T11:13:41.637Z,8.60
2019-03-01T11:16:22.847Z,7.57
2019-03-01T11:19:04.275Z,7.37
2019-03-01T11:21:45.719Z,8.17
2019-03-01T11:24:47.374Z,10.43
2019-03-01T11:27:28.475Z,7.60
2019-03-01T11:30:09.597Z,8.73
2019-03-01T11:32:51.092Z,9.57
2019-03-01T11:35:31.967Z,10.77
2019-03-01T11:38:13.376Z,9.93
2019-03-01T11:40:55.830Z,8.60
2019-03-01T11:43:36.830Z,10.30
2019-03-01T11:46:18.207Z,8.23
2019-03-01T11:48:59.399Z,8.13
2019-03-01T11:51:40.196Z,8.87
2019-03-01T11:54:20.962Z,7.97
2019-03-01T11:57:00.519Z,9.30
2019-03-01T11:59:41.191Z,8.27
2019-03-01T12:02:22.617Z,10.13
2019-03-01T12:05:02.166Z,9.00
2019-03-01T12:07:50.709Z,8.13
2019-03-01T12:10:31.763Z,10.83
2019-03-01T12:13:01.141Z,9.90
2019-03-01T12:15:49.539Z,13.40
2019-03-01T12:18:38.267Z,8.97
2019-03-01T12:21:07.720Z,8.50
2019-03-01T12:24:12.302Z,7.97
2019-03-01T12:26:40.727Z,10.17
2019-03-01T12:29:22.184Z,8.47
2019-03-01T12:32:03.851Z,8.43
2019-03-01T12:34:44.637Z,8.13
2019-03-01T12:37:25.419Z,8.63
2019-03-01T12:40:05.196Z,9.40
2019-03-01T12:42:46.222Z,8.43
2019-03-01T12:45:27.600Z,8.43
2019-03-01T12:48:08.825Z,8.23
2019-03-01T12:50:49.452Z,9.43
2019-03-01T12:53:30.705Z,9.90
2019-03-01T12:56:12.209Z,10.53
2019-03-01T12:58:53.576Z,8.33
2019-03-01T13:01:34.574Z,8.70
2019-03-01T13:04:15.687Z,11.03
2019-03-01T13:06:57.491Z,9.17
2019-03-01T13:09:38.686Z,9.30
2019-03-01T13:12:22.367Z,9.70
2019-03-01T13:15:02.369Z,10.37
2019-03-01T13:17:43.745Z,9.67
2019-03-01T13:20:23.238Z,9.83
2019-03-01T13:23:11.635Z,11.70
2019-03-01T13:25:52.468Z,11.00
2019-03-01T13:28:33.849Z,9.37
2019-03-01T13:31:15.434Z,9.63
2019-03-01T13:33:56.757Z,10.00
2019-03-01T13:36:39.500Z,9.63
2019-03-01T13:39:20.907Z,10.97
2019-03-01T13:42:02.434Z,11.43
2019-03-01T13:44:43.518Z,10.23
2019-03-01T13:47:24.626Z,10.13
2019-03-01T13:50:06.750Z,11.30
2019-03-01T13:52:48.221Z,12.30
2019-03-01T13:55:29.417Z,9.47
2019-03-01T13:58:10.809Z,11.20
2019-03-01T14:00:51.999Z,15.83
2019-03-01T14:03:33.433Z,11.30
2019-03-01T14:06:15.976Z,9.77
2019-03-01T14:08:57.302Z,9.90
2019-03-01T14:11:38.220Z,9.87
2019-03-01T14:14:17.793Z,9.13
2019-03-01T14:17:06.215Z,9.83
2019-03-01T14:19:54.655Z,9.80
2019-03-01T14:22:35.887Z,11.67
2019-03-01T14:25:17.334Z,11.80
2019-03-01T14:27:46.674Z,10.60
2019-03-01T14:30:35.125Z,12.20
2019-03-01T14:33:23.593Z,13.53
2019-03-01T14:36:04.282Z,13.90
2019-03-01T14:38:45.675Z,12.37
2019-03-01T14:41:27.189Z,12.30
2019-03-01T14:44:07.764Z,11.10
2019-03-01T14:46:48.727Z,12.10
2019-03-01T14:49:29.407Z,10.87
2019-03-01T14:52:10.845Z,12.07
2019-03-01T14:54:52.419Z,11.27
2019-03-01T14:57:35.849Z,10.57
2019-03-01T15:00:16.325Z,10.30
2019-03-01T15:02:57.812Z,17.57
2019-03-01T15:05:41.957Z,11.90
2019-03-01T15:08:21.637Z,11.80
2019-03-01T15:11:04.374Z,13.40
2019-03-01T15:13:45.453Z,11.93
2019-03-01T15:16:26.836Z,11.90
2019-03-01T15:19:09.041Z,13.23
2019-03-01T15:21:51.572Z,10.30
2019-03-01T15:24:33.237Z,11.87
2019-03-01T15:27:14.681Z,12.10
2019-03-01T15:29:55.881Z,11.77
2019-03-01T15:32:37.129Z,11.80
2019-03-01T15:35:18.294Z,10.70
2019-03-01T15:37:58.146Z,11.80
2019-03-01T15:40:31.211Z,10.97
2019-03-01T15:43:17.937Z,12.13
2019-03-01T15:45:58.862Z,11.33
2019-03-01T15:48:39.545Z,12.77
2019-03-01T15:51:20.945Z,10.90
2019-03-01T15:54:04.050Z,11.63
2019-03-01T15:56:45.404Z,13.37
2019-03-01T15:59:26.946Z,11.53
2019-03-01T16:02:08.214Z,11.80
2019-03-01T16:04:51.590Z,12.63
2019-03-01T16:07:33.461Z,12.37
2019-03-01T16:10:14.451Z,12.47
2019-03-01T16:12:55.675Z,11.80
2019-03-01T16:15:38.929Z,13.67
2019-03-01T16:18:19.525Z,13.23
2019-03-01T16:21:01.895Z,13.37
2019-03-01T16:23:43.581Z,12.43
2019-03-01T16:26:29.748Z,12.57
2019-03-01T16:29:08.104Z,12.30
2019-03-01T16:31:37.761Z,13.30
2019-03-01T16:34:26.247Z,13.00
2019-03-01T16:37:14.802Z,12.87
2019-03-01T16:40:00.041Z,12.67
2019-03-01T16:42:41.090Z,13.47
2019-03-01T16:45:22.013Z,16.40
2019-03-01T16:48:04.206Z,13.90
2019-03-01T16:50:44.926Z,14.17
2019-03-01T16:53:26.019Z,16.30
2019-03-01T16:56:09.090Z,16.97
2019-03-01T16:58:50.585Z,21.07
2019-03-01T17:01:30.851Z,20.53
2019-03-01T17:04:19.324Z,16.50
2019-03-01T17:07:00.172Z,16.37
2019-03-01T17:09:41.489Z,17.80
2019-03-01T17:12:22.532Z,20.00
2019-03-01T17:15:03.841Z,18.53
2019-03-01T17:17:45.251Z,19.30
2019-03-01T17:20:25.954Z,19.13
2019-03-01T17:23:06.950Z,18.47
2019-03-01T17:25:48.145Z,16.83
2019-03-01T17:28:29.197Z,17.97
2019-03-01T17:31:10.691Z,16.63
2019-03-01T17:33:52.040Z,18.47
2019-03-01T17:36:33.426Z,16.67
2019-03-01T17:39:16.631Z,19.30
2019-03-01T17:41:58.164Z,18.50
2019-03-01T17:44:41.425Z,17.20
2019-03-01T17:47:20.726Z,18.50
2019-03-01T17:50:01.766Z,17.67
2019-03-01T17:52:43.950Z,15.77
2019-03-01T17:55:25.146Z,19.83
2019-03-01T17:58:08.919Z,16.93
2019-03-01T18:00:49.538Z,16.97
2019-03-01T18:03:30.977Z,17.33
2019-03-01T18:06:12.984Z,18.93
2019-03-01T18:08:55.764Z,18.70
2019-03-01T18:11:36.948Z,20.93
2019-03-01T18:14:18.547Z,19.07
2019-03-01T18:17:00.377Z,20.47
2019-03-01T18:19:42.258Z,19.67
2019-03-01T18:22:26.407Z,17.53
2019-03-01T18:25:06.944Z,18.67
2019-03-01T18:27:49.647Z,18.57
2019-03-01T18:30:31.525Z,19.33
2019-03-01T18:33:16.903Z,20.33
2019-03-01T18:35:57.379Z,19.07
2019-03-01T18:38:49.370Z,19.17
2019-03-01T18:41:30.670Z,20.23
2019-03-01T18:44:12.604Z,19.80
2019-03-01T18:46:56.418Z,19.30
2019-03-01T18:49:38.470Z,19.67
2019-03-01T18:52:19.530Z,19.37
2019-03-01T18:55:01.602Z,20.13
2019-03-01T18:57:42.484Z,18.90
2019-03-01T19:00:23.468Z,19.83
2019-03-01T19:03:05.484Z,19.67
2019-03-01T19:05:46.470Z,20.57
2019-03-01T19:08:27.616Z,20.63
2019-03-01T19:11:09.050Z,21.73
2019-03-01T19:13:50.164Z,21.43
2019-03-01T19:16:32.073Z,22.87
2019-03-01T19:19:13.440Z,23.73
2019-03-01T19:21:54.180Z,24.87
2019-03-01T19:24:42.874Z,22.70
2019-03-01T19:27:19.094Z,25.43
2019-03-01T19:29:59.912Z,25.53
2019-03-01T19:32:41.245Z,25.53
2019-03-01T19:35:28.456Z,26.00
2019-03-01T19:38:05.310Z,25.57
2019-03-01T19:40:48.065Z,26.33
2019-03-01T19:43:29.649Z,24.57
2019-03-01T19:46:12.642Z,25.07
2019-03-01T19:48:57.631Z,24.90
2019-03-01T19:51:39.124Z,24.77
2019-03-01T19:54:20.389Z,25.90
2019-03-01T19:57:02.585Z,25.63
2019-03-01T19:59:46.534Z,26.33
2019-03-01T20:02:27.787Z,27.73
2019-03-01T20:05:10.050Z,28.03
2019-03-01T20:07:54.388Z,25.83
2019-03-01T20:10:36.840Z,26.90
2019-03-01T20:13:18.098Z,27.17
2019-03-01T20:15:58.988Z,26.63
2019-03-01T20:18:41.752Z,26.27
2019-03-01T20:21:23.899Z,26.23
2019-03-01T20:24:06.832Z,25.57
2019-03-01T20:26:48.603Z,24.87
2019-03-01T20:29:29.916Z,24.67
2019-03-01T20:32:12.559Z,23.73
2019-03-01T20:34:54.107Z,24.03
2019-03-01T20:37:35.770Z,22.77
2019-03-01T20:40:17.381Z,22.97
2019-03-01T20:43:05.480Z,26.13
2019-03-01T20:45:41.270Z,25.57
2019-03-01T20:48:25.652Z,27.67
2019-03-01T20:51:06.248Z,25.87
2019-03-01T20:53:49.464Z,28.73
2019-03-01T20:56:30.115Z,26.37
2019-03-01T20:59:00.182Z,26.30
2019-03-01T21:01:49.073Z,25.27
2019-03-01T21:04:30.565Z,25.27
2019-03-01T21:07:12.479Z,28.17
2019-03-01T21:09:54.174Z,26.90
2019-03-01T21:12:36.666Z,27.37
2019-03-01T21:15:17.990Z,31.17
2019-03-01T21:24:10.305Z,30.17
2019-03-01T21:26:52.072Z,31.03
2019-03-01T21:29:33.304Z,29.47
2019-03-01T21:32:15.481Z,31.03
2019-03-01T21:34:56.192Z,30.20
2019-03-01T21:37:38.302Z,29.47
2019-03-01T21:40:20.221Z,31.93
2019-03-01T21:43:01.422Z,31.30
2019-03-01T21:45:42.880Z,29.40
2019-03-01T21:48:25.337Z,29.33
2019-03-01T21:50:55.633Z,28.00
2019-03-01T21:53:44.334Z,28.90
2019-03-01T21:56:32.905Z,30.43
2019-03-01T21:59:17.287Z,28.43
2019-03-01T22:01:57.756Z,29.17
2019-03-01T22:04:39.086Z,28.67
2019-03-01T22:07:08.523Z,28.30
2019-03-01T22:09:59.585Z,28.23
2019-03-01T22:12:47.570Z,30.03
2019-03-01T22:15:28.619Z,27.27
2019-03-01T22:18:09.685Z,27.80
2019-03-01T22:20:49.475Z,28.10
2019-03-01T22:23:37.952Z,26.93
2019-03-01T22:26:19.158Z,27.23
2019-03-01T22:28:59.963Z,27.23
2019-03-01T22:31:32.561Z,28.77
2019-03-01T22:34:19.868Z,27.83
2019-03-01T22:37:01.561Z,27.70
2019-03-01T22:39:42.885Z,26.93
2019-03-01T22:42:23.936Z,28.43
2019-03-01T22:45:05.235Z,29.03
2019-03-01T22:47:46.391Z,27.63
2019-03-01T22:50:27.954Z,29.50
2019-03-01T22:53:11.146Z,28.60
2019-03-01T22:55:52.047Z,29.30
2019-03-01T22:58:36.455Z,27.97
2019-03-01T23:01:20.832Z,29.37
2019-03-01T23:04:02.393Z,30.13
2019-03-01T23:06:43.481Z,29.67
2019-03-01T23:09:26.071Z,29.63
2019-03-01T23:12:08.131Z,29.87
2019-03-01T23:14:49.935Z,30.30
2019-03-01T23:17:31.284Z,29.77
2019-03-01T23:20:12.826Z,29.20
2019-03-01T23:22:57.788Z,28.17
2019-03-01T23:25:39.242Z,30.13
2019-03-01T23:28:20.710Z,28.20
2019-03-01T23:31:03.629Z,28.70
2019-03-01T23:33:44.546Z,29.90
2019-03-01T23:36:28.515Z,31.40
2019-03-01T23:39:08.825Z,31.87
2019-03-01T23:41:49.494Z,31.67
2019-03-01T23:44:30.084Z,33.00
2019-03-01T23:47:11.332Z,33.13
2019-03-01T23:49:55.714Z,33.60
2019-03-01T23:52:35.794Z,34.73
2019-03-01T23:55:19.110Z,33.43
2019-03-01T23:58:05.993Z,34.70
